createdAt,value
2023-04-20T00:02:16.711Z,95389.91
2023-04-20T00:05:18.593Z,95390.59
2023-04-20T00:08:20.338Z,95385.91
2023-04-20T00:11:22.083Z,95376.84
2023-04-20T00:14:23.823Z,95371.09
2023-04-20T00:17:27.000Z,95368.13
2023-04-20T00:20:28.902Z,95359.06
2023-04-20T00:23:30.595Z,95358.03
2023-04-20T00:26:32.395Z,95350.44
2023-04-20T00:29:34.394Z,95353.47
2023-04-20T00:32:37.574Z,95350.00
2023-04-20T00:35:39.332Z,95343.94
2023-04-20T00:38:41.178Z,95341.97
2023-04-20T00:41:42.893Z,95332.72
2023-04-20T00:44:44.596Z,95327.09
2023-04-20T00:47:47.756Z,95329.53
2023-04-20T00:50:50.330Z,95325.75
2023-04-20T00:53:52.091Z,95322.28
2023-04-20T00:56:54.431Z,95323.06
2023-04-20T00:59:56.153Z,95330.06
2023-04-20T01:02:59.591Z,95323.50
2023-04-20T01:06:02.221Z,95319.34
2023-04-20T01:09:04.534Z,95318.28
2023-04-20T01:12:06.534Z,95306.66
2023-04-20T01:15:09.214Z,95310.81
2023-04-20T01:18:12.395Z,95313.66
2023-04-20T01:21:15.299Z,95307.53
2023-04-20T01:24:18.411Z,95308.66
2023-04-20T01:27:20.300Z,95314.38
2023-04-20T01:30:22.149Z,95307.72
2023-04-20T01:33:23.882Z,95305.03
2023-04-20T01:36:25.728Z,95295.66
2023-04-20T01:39:29.056Z,95302.88
2023-04-20T01:42:30.934Z,95303.00
2023-04-20T01:45:32.706Z,95306.72
2023-04-20T01:48:34.882Z,95304.38
2023-04-20T01:51:37.341Z,95302.03
2023-04-20T01:54:40.513Z,95297.13
2023-04-20T01:57:42.212Z,95299.00
2023-04-20T02:00:44.327Z,95306.59
2023-04-20T02:03:46.418Z,95291.94
2023-04-20T02:06:48.282Z,95289.63
2023-04-20T02:09:51.499Z,95278.81
2023-04-20T02:12:53.286Z,95271.41
2023-04-20T02:15:55.039Z,95265.03
2023-04-20T02:18:56.853Z,95275.13
2023-04-20T02:21:58.583Z,95268.22
2023-04-20T02:25:01.989Z,95277.91
2023-04-20T02:28:03.990Z,95264.00
2023-04-20T02:31:05.908Z,95263.31
2023-04-20T02:34:07.616Z,95274.88
2023-04-20T02:37:09.331Z,95265.22
2023-04-20T02:40:13.235Z,95265.19
2023-04-20T02:43:14.934Z,95265.03
2023-04-20T02:46:17.667Z,95258.44
2023-04-20T02:49:19.578Z,95255.28
2023-04-20T02:52:21.523Z,95257.28
2023-04-20T02:55:24.852Z,95259.78
2023-04-20T02:58:26.641Z,95255.78
2023-04-20T03:01:28.529Z,95250.47
2023-04-20T03:04:30.524Z,95251.91
2023-04-20T03:07:32.404Z,95249.09
2023-04-20T03:10:35.477Z,95245.91
2023-04-20T03:13:37.345Z,95232.84
2023-04-20T03:16:39.281Z,95227.75
2023-04-20T03:19:41.022Z,95228.94
2023-04-20T03:22:42.848Z,95222.25
2023-04-20T03:25:46.005Z,95223.72
2023-04-20T03:28:49.777Z,95227.88
2023-04-20T03:31:51.513Z,95229.13
2023-04-20T03:34:53.253Z,95225.91
2023-04-20T03:37:55.028Z,95224.63
2023-04-20T03:40:58.203Z,95219.19
2023-04-20T03:44:00.018Z,95218.97
2023-04-20T03:47:01.813Z,95220.31
2023-04-20T03:50:03.889Z,95220.25
2023-04-20T03:53:05.689Z,95219.91
2023-04-20T03:56:08.954Z,95222.03
2023-04-20T03:59:10.689Z,95220.09
2023-04-20T04:02:12.506Z,95218.47
2023-04-20T04:05:14.370Z,95215.09
2023-04-20T04:08:16.158Z,95220.19
2023-04-20T04:11:19.312Z,95220.78
2023-04-20T04:14:21.123Z,95217.66
2023-04-20T04:17:22.984Z,95208.69
2023-04-20T04:20:24.840Z,95215.56
2023-04-20T04:23:26.656Z,95220.03
2023-04-20T04:26:29.831Z,95215.28
2023-04-20T04:29:31.576Z,95225.88
2023-04-20T04:32:33.387Z,95219.50
2023-04-20T04:35:35.201Z,95223.16
2023-04-20T04:38:36.948Z,95218.44
2023-04-20T04:41:40.044Z,95218.53
2023-04-20T04:44:41.835Z,95227.56
2023-04-20T04:47:43.695Z,95223.72
2023-04-20T04:50:45.499Z,95226.50
2023-04-20T04:53:47.298Z,95226.69
2023-04-20T04:56:50.313Z,95229.78
2023-04-20T04:59:52.114Z,95224.97
2023-04-20T05:02:54.003Z,95232.19
2023-04-20T05:05:55.851Z,95228.53
2023-04-20T05:08:57.612Z,95230.22
2023-04-20T05:12:00.800Z,95240.03
2023-04-20T05:15:02.741Z,95230.47
2023-04-20T05:18:04.776Z,95235.34
2023-04-20T05:21:06.629Z,95235.03
2023-04-20T05:24:08.574Z,95244.94
2023-04-20T05:27:11.719Z,95242.94
2023-04-20T05:30:21.450Z,95246.03
2023-04-20T05:33:23.744Z,95241.69
2023-04-20T05:36:25.541Z,95232.50
2023-04-20T05:39:27.340Z,95237.53
2023-04-20T05:42:30.478Z,95244.97
2023-04-20T05:45:32.220Z,95234.63
2023-04-20T05:48:34.010Z,95234.34
2023-04-20T05:51:35.736Z,95238.22
2023-04-20T05:54:37.576Z,95233.91
2023-04-20T05:57:40.675Z,95231.34
2023-04-20T06:00:42.390Z,95234.72
2023-04-20T06:03:44.415Z,95227.66
2023-04-20T06:06:46.351Z,95218.28
2023-04-20T06:09:48.117Z,95229.47
2023-04-20T06:12:51.143Z,95228.72
2023-04-20T06:15:53.048Z,95223.06
2023-04-20T06:18:54.915Z,95230.91
2023-04-20T06:21:59.556Z,95227.22
2023-04-20T06:25:03.091Z,95215.50
2023-04-20T06:28:06.658Z,95217.94
2023-04-20T06:31:08.465Z,95218.25
2023-04-20T06:34:10.238Z,95218.19
2023-04-20T06:37:12.215Z,95218.28
2023-04-20T06:40:16.170Z,95215.34
2023-04-20T06:43:19.476Z,95213.22
2023-04-20T06:46:21.269Z,95213.03
2023-04-20T06:49:23.277Z,95212.00
2023-04-20T06:52:25.242Z,95209.66
2023-04-20T06:55:27.066Z,95208.47
2023-04-20T06:58:30.218Z,95189.56
2023-04-20T07:01:32.023Z,95176.56
2023-04-20T07:04:33.771Z,95174.22
2023-04-20T07:07:35.593Z,95165.44
2023-04-20T07:10:37.430Z,95155.09
2023-04-20T07:13:40.515Z,95155.44
2023-04-20T07:16:42.306Z,95170.09
2023-04-20T07:19:44.074Z,95158.19
2023-04-20T07:22:45.828Z,95151.31
2023-04-20T07:25:47.639Z,95153.97
2023-04-20T07:28:51.194Z,95145.09
2023-04-20T07:31:53.057Z,95147.50
2023-04-20T07:34:54.750Z,95138.56
2023-04-20T07:37:56.647Z,95144.34
2023-04-20T07:40:58.404Z,95140.19
2023-04-20T07:44:01.569Z,95146.38
2023-04-20T07:47:03.703Z,95146.88
2023-04-20T07:50:06.772Z,95161.56
2023-04-20T07:53:08.647Z,95162.69
2023-04-20T07:56:10.402Z,95164.56
2023-04-20T07:59:13.600Z,95157.03
2023-04-20T08:02:16.120Z,95157.72
2023-04-20T08:05:18.429Z,95156.44
2023-04-20T08:08:20.444Z,95152.56
2023-04-20T08:11:22.272Z,95159.53
2023-04-20T08:14:25.408Z,95146.31
2023-04-20T08:17:27.185Z,95152.72
2023-04-20T08:20:28.886Z,95145.28
2023-04-20T08:23:30.701Z,95137.31
2023-04-20T08:26:33.113Z,95133.09
2023-04-20T08:29:36.291Z,95142.75
2023-04-20T08:32:38.113Z,95143.88
2023-04-20T08:35:39.943Z,95149.88
2023-04-20T08:38:41.798Z,95136.19
2023-04-20T08:41:43.605Z,95130.41
2023-04-20T08:44:46.807Z,95127.88
2023-04-20T08:47:50.020Z,95136.34
2023-04-20T08:50:51.930Z,95142.31
2023-04-20T08:53:55.562Z,95147.06
2023-04-20T08:56:57.317Z,95142.56
2023-04-20T09:00:00.446Z,95138.03
2023-04-20T09:03:02.423Z,95133.84
2023-04-20T09:06:05.613Z,95136.91
2023-04-20T09:09:10.296Z,95131.84
2023-04-20T09:12:12.013Z,95137.28
2023-04-20T09:15:26.651Z,95138.34
2023-04-20T09:18:28.412Z,95138.41
2023-04-20T09:21:30.185Z,95136.09
2023-04-20T09:24:33.988Z,95123.97
2023-04-20T09:27:35.696Z,95130.81
2023-04-20T09:30:41.035Z,95130.13
2023-04-20T09:33:42.821Z,95131.66
2023-04-20T09:36:46.030Z,95133.25
2023-04-20T09:39:47.960Z,95115.19
2023-04-20T09:42:50.813Z,95125.66
2023-04-20T09:45:54.880Z,95124.34
2023-04-20T09:48:57.567Z,95119.03
2023-04-20T09:52:02.132Z,95113.25
2023-04-20T09:55:05.479Z,95110.06
2023-04-20T09:58:07.231Z,95105.56
2023-04-20T10:01:11.631Z,95113.34
2023-04-20T10:04:13.763Z,95116.16
2023-04-20T10:07:24.019Z,95115.88
2023-04-20T10:10:25.952Z,95121.00
2023-04-20T10:13:33.719Z,95112.28
2023-04-20T10:16:36.909Z,95111.59
2023-04-20T10:19:40.045Z,95115.81
2023-04-20T10:22:41.838Z,95114.09
2023-04-20T10:25:43.634Z,95121.00
2023-04-20T10:28:45.401Z,95109.97
2023-04-20T10:31:48.499Z,95103.09
2023-04-20T10:35:01.506Z,95108.19
2023-04-20T10:38:03.294Z,95105.53
2023-04-20T10:41:08.353Z,95110.72
2023-04-20T10:44:10.178Z,95101.50
2023-04-20T10:47:13.385Z,95098.91
2023-04-20T10:50:16.128Z,95086.47
2023-04-20T10:53:19.491Z,95087.38
2023-04-20T10:56:21.256Z,95094.06
2023-04-20T10:59:24.828Z,95084.81
2023-04-20T11:02:28.237Z,95079.13
2023-04-20T11:05:30.068Z,95076.25
2023-04-20T11:08:39.756Z,95071.78
2023-04-20T11:11:41.506Z,95076.69
2023-04-20T11:14:51.971Z,95069.22
2023-04-20T11:17:55.443Z,95072.78
2023-04-20T11:20:57.472Z,95071.69
2023-04-20T11:23:59.450Z,95072.28
2023-04-20T11:27:02.361Z,95068.59
2023-04-20T11:30:05.749Z,95054.94
2023-04-20T11:33:09.116Z,95050.06
2023-04-20T11:36:18.947Z,95060.16
2023-04-20T11:39:23.759Z,95058.31
2023-04-20T11:42:25.633Z,95062.63
2023-04-20T11:45:27.776Z,95053.41
2023-04-20T11:48:31.797Z,95061.88
2023-04-20T11:51:33.579Z,95048.75
2023-04-20T11:54:35.362Z,95043.44
2023-04-20T11:57:37.188Z,95040.78
2023-04-20T12:00:38.982Z,95040.78
2023-04-20T12:03:43.889Z,95041.59
2023-04-20T12:06:47.309Z,95034.38
2023-04-20T12:09:49.066Z,95031.38
2023-04-20T12:12:50.898Z,95033.31
2023-04-20T12:15:52.664Z,95032.94
2023-04-20T12:18:55.853Z,95024.94
2023-04-20T12:21:57.679Z,95021.84
2023-04-20T12:24:59.441Z,95019.97
2023-04-20T12:28:01.428Z,95026.13
2023-04-20T12:31:03.249Z,95024.19
2023-04-20T12:34:06.529Z,95021.13
2023-04-20T12:37:08.361Z,95018.41
2023-04-20T12:40:10.707Z,95024.19
2023-04-20T12:43:12.415Z,95013.78
2023-04-20T12:46:14.302Z,95006.06
2023-04-20T12:49:17.733Z,94996.44
2023-04-20T12:52:19.770Z,94990.25
2023-04-20T12:55:21.636Z,95002.53
2023-04-20T12:58:23.355Z,94979.75
2023-04-20T13:01:25.258Z,94991.59
2023-04-20T13:04:28.609Z,94984.56
2023-04-20T13:07:30.770Z,94986.44
2023-04-20T13:10:32.472Z,94978.31
2023-04-20T13:13:34.235Z,94973.66
2023-04-20T13:16:36.029Z,94986.81
2023-04-20T13:19:39.152Z,94989.09
2023-04-20T13:22:47.021Z,94968.94
2023-04-20T13:25:56.448Z,94970.69
2023-04-20T13:28:58.222Z,94966.84
2023-04-20T13:31:59.994Z,94965.88
2023-04-20T13:35:03.362Z,94969.06
2023-04-20T13:38:05.426Z,94962.84
2023-04-20T13:41:07.207Z,94958.47
2023-04-20T13:44:08.941Z,94962.38
2023-04-20T13:47:10.694Z,94949.94
2023-04-20T13:50:13.829Z,94953.75
2023-04-20T13:53:15.636Z,94962.25
2023-04-20T13:56:17.373Z,94952.81
2023-04-20T13:59:19.088Z,94958.06
2023-04-20T14:02:20.951Z,94949.00
2023-04-20T14:05:24.299Z,94951.56
2023-04-20T14:08:26.283Z,94943.00
2023-04-20T14:11:28.034Z,94938.25
2023-04-20T14:14:29.905Z,94922.72
2023-04-20T14:17:31.733Z,94926.91
2023-04-20T14:20:34.957Z,94917.25
2023-04-20T14:23:36.734Z,94931.31
2023-04-20T14:26:38.550Z,94921.53
2023-04-20T14:29:40.311Z,94913.81
2023-04-20T14:32:42.147Z,94914.00
2023-04-20T14:35:45.340Z,94908.09
2023-04-20T14:38:47.086Z,94908.31
2023-04-20T14:41:49.025Z,94909.38
2023-04-20T14:44:50.840Z,94908.66
2023-04-20T14:47:53.495Z,94914.03
2023-04-20T14:50:56.665Z,94916.75
2023-04-20T14:53:58.516Z,94910.75
2023-04-20T14:57:01.581Z,94917.00
2023-04-20T15:00:04.518Z,94916.63
2023-04-20T15:03:06.423Z,94920.84
2023-04-20T15:06:09.883Z,94905.34
2023-04-20T15:09:11.589Z,94901.84
2023-04-20T15:12:13.337Z,94903.09
2023-04-20T15:15:15.486Z,94902.16
2023-04-20T15:18:17.553Z,94904.88
2023-04-20T15:21:22.109Z,94896.63
2023-04-20T15:24:23.867Z,94892.06
2023-04-20T15:27:25.585Z,94895.16
2023-04-20T15:30:27.565Z,94886.31
2023-04-20T15:33:29.294Z,94891.06
2023-04-20T15:36:32.397Z,94896.47
2023-04-20T15:39:34.181Z,94889.84
2023-04-20T15:42:35.904Z,94889.03
2023-04-20T15:45:37.717Z,94894.53
2023-04-20T15:48:39.497Z,94890.66
2023-04-20T15:51:43.870Z,94892.97
2023-04-20T15:54:47.133Z,94891.81
2023-04-20T15:57:48.884Z,94893.22
2023-04-20T16:00:50.595Z,94897.47
2023-04-20T16:03:52.478Z,94895.25
2023-04-20T16:06:55.955Z,94889.78
2023-04-20T16:09:57.701Z,94892.13
2023-04-20T16:12:59.418Z,94891.00
2023-04-20T16:16:01.237Z,94902.63
2023-04-20T16:19:03.013Z,94891.78
2023-04-20T16:22:06.141Z,94900.31
2023-04-20T16:25:08.831Z,94900.25
2023-04-20T16:28:10.620Z,94909.13
2023-04-20T16:31:12.659Z,94897.97
2023-04-20T16:34:14.803Z,94906.22
2023-04-20T16:37:17.985Z,94904.34
2023-04-20T16:40:19.935Z,94909.47
2023-04-20T16:43:21.781Z,94910.69
2023-04-20T16:46:23.604Z,94905.97
2023-04-20T16:49:25.469Z,94909.13
2023-04-20T16:52:28.546Z,94911.25
2023-04-20T16:55:30.451Z,94919.38
2023-04-20T16:58:32.283Z,94923.25
2023-04-20T17:01:34.308Z,94927.94
2023-04-20T17:04:36.099Z,94924.53
2023-04-20T17:07:39.310Z,94924.22
2023-04-20T17:10:41.042Z,94922.25
2023-04-20T17:13:42.793Z,94924.28
2023-04-20T17:16:44.560Z,94928.69
2023-04-20T17:19:46.420Z,94934.06
2023-04-20T17:22:49.582Z,94932.19
2023-04-20T17:25:51.362Z,94936.97
2023-04-20T17:28:53.402Z,94932.69
2023-04-20T17:31:55.915Z,94939.69
2023-04-20T17:34:57.802Z,94947.91
2023-04-20T17:38:01.458Z,94951.03
2023-04-20T17:41:03.342Z,94952.59
2023-04-20T17:44:05.154Z,94957.22
2023-04-20T17:47:09.055Z,94951.09
2023-04-20T17:50:11.337Z,94944.13
2023-04-20T17:53:14.980Z,94951.03
2023-04-20T17:56:17.222Z,94946.63
2023-04-20T17:59:19.420Z,94957.38
2023-04-20T18:02:21.811Z,94956.28
2023-04-20T18:05:24.413Z,94958.97
2023-04-20T18:08:28.024Z,94952.78
2023-04-20T18:11:33.043Z,94968.25
2023-04-20T18:14:35.307Z,94964.44
2023-04-20T18:17:37.722Z,94961.38
2023-04-20T18:20:39.711Z,94970.25
2023-04-20T18:23:43.082Z,94973.31
2023-04-20T18:26:45.156Z,94972.19
2023-04-20T18:29:47.371Z,94980.31
2023-04-20T18:32:52.297Z,94975.34
2023-04-20T18:35:54.603Z,94983.09
2023-04-20T18:38:58.676Z,94981.94
2023-04-20T18:42:00.546Z,94979.66
2023-04-20T18:45:02.732Z,94983.47
2023-04-20T18:48:07.360Z,94976.56
2023-04-20T18:51:10.068Z,94968.06
2023-04-20T18:54:13.888Z,94972.75
2023-04-20T18:57:16.191Z,94987.75
2023-04-20T19:00:20.817Z,94984.66
2023-04-20T19:03:25.379Z,94979.28
2023-04-20T19:06:30.908Z,94977.41
2023-04-20T19:09:36.237Z,94984.03
2023-04-20T19:12:40.097Z,94980.97
2023-04-20T19:15:43.417Z,94984.41
2023-04-20T19:18:46.216Z,94982.88
2023-04-20T19:21:49.702Z,94989.78
2023-04-20T19:24:53.966Z,94978.63
2023-04-20T19:27:56.346Z,94994.84
2023-04-20T19:30:59.935Z,94989.06
2023-04-20T19:34:02.246Z,94984.81
2023-04-20T19:37:04.466Z,94983.69
2023-04-20T19:40:10.053Z,94991.41
2023-04-20T19:43:12.895Z,94992.56
2023-04-20T19:46:17.164Z,94981.38
2023-04-20T19:49:20.582Z,94992.16
2023-04-20T19:52:23.665Z,94984.84
2023-04-20T19:55:28.406Z,94993.34
2023-04-20T19:58:30.645Z,94973.69
2023-04-20T20:01:35.880Z,94981.78
2023-04-20T20:04:38.267Z,94986.03
2023-04-20T20:07:40.426Z,94980.63
2023-04-20T20:10:44.395Z,94992.56
2023-04-20T20:13:46.329Z,95000.31
2023-04-20T20:16:48.828Z,95004.16
2023-04-20T20:19:50.656Z,95005.69
2023-04-20T20:22:52.753Z,95005.69
2023-04-20T20:25:56.345Z,95004.56
2023-04-20T20:28:58.471Z,95004.16
2023-04-20T20:32:00.215Z,95007.25
2023-04-20T20:35:02.177Z,95014.16
2023-04-20T20:38:04.157Z,95008.78
2023-04-20T20:41:07.307Z,95005.72
2023-04-20T20:44:09.189Z,95009.16
2023-04-20T20:47:10.985Z,95013.00
2023-04-20T20:50:14.352Z,95021.50
2023-04-20T20:53:16.219Z,95022.25
2023-04-20T20:56:19.298Z,95026.09
2023-04-20T20:59:21.283Z,95028.78
2023-04-20T21:02:23.185Z,95026.47
2023-04-20T21:05:25.103Z,95030.72
2023-04-20T21:08:26.921Z,95024.94
2023-04-20T21:11:30.092Z,95033.81
2023-04-20T21:14:32.073Z,95026.88
2023-04-20T21:17:33.854Z,95036.13
2023-04-20T21:20:35.736Z,95041.50
2023-04-20T21:23:37.447Z,95042.66
2023-04-20T21:26:40.601Z,95041.09
2023-04-20T21:29:42.375Z,95034.56
2023-04-20T21:32:44.177Z,95041.09
2023-04-20T21:35:45.964Z,95035.31
2023-04-20T21:38:47.832Z,95047.59
2023-04-20T21:41:50.919Z,95047.63
2023-04-20T21:44:52.700Z,95049.53
2023-04-20T21:47:54.529Z,95053.78
2023-04-20T21:50:56.257Z,95049.19
2023-04-20T21:53:58.009Z,95060.38
2023-04-20T21:57:01.201Z,95054.56
2023-04-20T22:00:03.237Z,95059.56
2023-04-20T22:03:05.382Z,95049.94
2023-04-20T22:06:07.324Z,95055.34
2023-04-20T22:09:09.205Z,95050.75
2023-04-20T22:12:12.309Z,95052.22
2023-04-20T22:15:14.460Z,95057.97
2023-04-20T22:18:16.237Z,95059.13
2023-04-20T22:21:18.022Z,95057.97
2023-04-20T22:24:19.790Z,95070.63
2023-04-20T22:27:22.973Z,95066.09
2023-04-20T22:30:24.768Z,95075.72
2023-04-20T22:33:26.595Z,95078.03
2023-04-20T22:36:28.398Z,95079.50
2023-04-20T22:39:30.115Z,95075.69
2023-04-20T22:42:33.266Z,95081.81
2023-04-20T22:45:35.023Z,95088.75
2023-04-20T22:48:36.764Z,95092.59
2023-04-20T22:51:38.578Z,95095.69
2023-04-20T22:54:40.434Z,95098.41
2023-04-20T22:57:43.535Z,95106.06
2023-04-20T23:00:45.323Z,95107.56
2023-04-20T23:03:47.257Z,95115.63
2023-04-20T23:06:49.101Z,95122.19
2023-04-20T23:09:50.835Z,95118.34
2023-04-20T23:12:54.113Z,95116.00
2023-04-20T23:15:55.802Z,95119.03
2023-04-20T23:18:57.580Z,95115.56
2023-04-20T23:21:59.315Z,95112.47
2023-04-20T23:25:01.093Z,95114.03
2023-04-20T23:28:04.487Z,95117.13
2023-04-20T23:31:06.229Z,95112.50
2023-04-20T23:34:08.013Z,95117.47
2023-04-20T23:37:09.745Z,95106.69
2023-04-20T23:40:11.837Z,95110.94
2023-04-20T23:43:14.928Z,95112.47
2023-04-20T23:46:16.707Z,95108.94
2023-04-20T23:49:18.761Z,95104.75
2023-04-20T23:52:20.701Z,95103.19
2023-04-20T23:55:22.578Z,95102.41
2023-04-20T23:58:26.664Z,95105.09
